createdAt,value
2018-01-21T00:01:59.686Z,25.75
2018-01-21T00:04:26.409Z,24.98
2018-01-21T00:06:53.168Z,21.62
2018-01-21T00:09:19.889Z,24.05
2018-01-21T00:11:46.623Z,23.23
2018-01-21T00:14:13.352Z,25.73
2018-01-21T00:16:40.086Z,21.95
2018-01-21T00:19:06.829Z,22.10
2018-01-21T00:21:33.625Z,20.17
2018-01-21T00:24:00.829Z,20.15
2018-01-21T00:26:27.548Z,18.80
2018-01-21T00:28:54.314Z,23.75
2018-01-21T00:31:21.038Z,21.15
2018-01-21T00:33:47.781Z,21.55
2018-01-21T00:36:14.520Z,24.48
2018-01-21T00:38:41.239Z,18.92
2018-01-21T00:41:07.993Z,21.42
2018-01-21T00:43:34.725Z,20.88
2018-01-21T00:46:01.465Z,24.00
2018-01-21T00:48:28.203Z,20.12
2018-01-21T00:50:54.961Z,20.60
2018-01-21T00:53:21.680Z,22.35
2018-01-21T00:55:48.394Z,21.60
2018-01-21T00:58:15.125Z,22.20
2018-01-21T01:00:41.877Z,22.77
2018-01-21T01:03:08.609Z,23.95
2018-01-21T01:05:35.366Z,20.75
2018-01-21T01:08:02.091Z,20.33
2018-01-21T01:10:28.826Z,21.98
2018-01-21T01:12:55.569Z,20.60
2018-01-21T01:15:22.316Z,21.27
2018-01-21T01:17:49.054Z,21.53
2018-01-21T01:20:15.800Z,19.40
2018-01-21T01:22:42.535Z,22.40
2018-01-21T01:25:09.244Z,19.17
2018-01-21T01:27:35.985Z,19.35
2018-01-21T01:30:02.731Z,19.55
2018-01-21T01:32:32.415Z,18.85
2018-01-21T01:34:59.146Z,16.80
2018-01-21T01:37:25.870Z,18.97
2018-01-21T01:39:52.585Z,20.37
2018-01-21T01:42:19.440Z,21.20
2018-01-21T01:44:46.177Z,20.15
2018-01-21T01:47:12.908Z,19.75
2018-01-21T01:49:39.644Z,17.20
2018-01-21T01:52:06.368Z,22.13
2018-01-21T01:54:33.082Z,21.90
2018-01-21T01:56:59.852Z,20.75
2018-01-21T01:59:26.572Z,24.07
2018-01-21T02:01:53.280Z,19.50
2018-01-21T02:04:20.010Z,18.80
2018-01-21T02:06:46.746Z,20.77
2018-01-21T02:09:13.466Z,20.43
2018-01-21T02:11:40.228Z,18.60
2018-01-21T02:14:06.958Z,22.60
2018-01-21T02:16:33.679Z,20.00
2018-01-21T02:19:00.413Z,19.40
2018-01-21T02:21:27.157Z,20.55
2018-01-21T02:23:53.895Z,17.23
2018-01-21T02:26:20.642Z,22.62
2018-01-21T02:28:47.372Z,18.77
2018-01-21T02:31:14.085Z,20.17
2018-01-21T02:33:40.825Z,20.50
2018-01-21T02:36:07.557Z,22.20
2018-01-21T02:38:34.273Z,19.50
2018-01-21T02:41:01.043Z,20.58
2018-01-21T02:43:27.782Z,19.90
2018-01-21T02:45:54.530Z,19.75
2018-01-21T02:48:21.270Z,20.45
2018-01-21T02:50:48.010Z,17.92
2018-01-21T02:53:14.730Z,20.25
2018-01-21T02:55:41.493Z,20.48
2018-01-21T02:58:08.220Z,21.12
2018-01-21T03:00:34.942Z,24.13
2018-01-21T03:03:01.680Z,19.93
2018-01-21T03:05:28.397Z,20.05
2018-01-21T03:07:55.125Z,23.85
2018-01-21T03:10:21.868Z,18.43
2018-01-21T03:12:48.608Z,19.75
2018-01-21T03:15:15.355Z,18.85
2018-01-21T03:17:42.095Z,20.35
2018-01-21T03:20:08.822Z,18.93
2018-01-21T03:22:35.544Z,22.77
2018-01-21T03:25:02.274Z,19.58
2018-01-21T03:27:29.002Z,21.35
2018-01-21T03:29:55.739Z,18.75
2018-01-21T03:32:22.491Z,23.90
2018-01-21T03:34:49.217Z,20.92
2018-01-21T03:37:15.945Z,19.75
2018-01-21T03:39:42.678Z,19.57
2018-01-21T03:42:09.400Z,15.82
2018-01-21T03:44:36.154Z,22.52
2018-01-21T03:47:02.881Z,17.87
2018-01-21T03:49:29.609Z,20.55
2018-01-21T03:51:56.341Z,20.80
2018-01-21T03:54:23.122Z,20.05
2018-01-21T03:56:49.850Z,17.55
2018-01-21T03:59:16.578Z,16.02
2018-01-21T04:01:43.315Z,18.58
2018-01-21T04:04:10.037Z,19.02
2018-01-21T04:06:36.783Z,18.05
2018-01-21T04:09:03.570Z,19.27
2018-01-21T04:11:30.292Z,20.48
2018-01-21T04:13:57.014Z,16.50
2018-01-21T04:16:23.802Z,19.85
2018-01-21T04:18:50.540Z,17.20
2018-01-21T04:21:17.253Z,16.85
2018-01-21T04:23:43.986Z,17.08
2018-01-21T04:26:10.732Z,17.90
2018-01-21T04:28:37.454Z,24.98
2018-01-21T04:31:04.206Z,19.08
2018-01-21T04:33:30.930Z,19.02
2018-01-21T04:35:57.653Z,20.70
2018-01-21T04:38:24.395Z,16.02
2018-01-21T04:40:51.114Z,18.10
2018-01-21T04:43:17.840Z,20.17
2018-01-21T04:45:44.580Z,18.58
2018-01-21T04:48:11.303Z,18.00
2018-01-21T04:50:38.029Z,18.20
2018-01-21T04:53:04.767Z,17.33
2018-01-21T04:55:31.534Z,22.40
2018-01-21T04:57:58.257Z,16.75
2018-01-21T05:00:25.027Z,22.58
2018-01-21T05:02:51.753Z,22.80
2018-01-21T05:05:18.514Z,18.65
2018-01-21T05:07:45.246Z,17.62
2018-01-21T05:10:11.992Z,18.52
2018-01-21T05:12:38.732Z,23.25
2018-01-21T05:15:05.478Z,17.83
2018-01-21T05:17:32.194Z,17.10
2018-01-21T05:19:58.923Z,17.40
2018-01-21T05:22:25.675Z,19.40
2018-01-21T05:24:52.411Z,22.25
2018-01-21T05:27:19.155Z,20.00
2018-01-21T05:29:45.887Z,16.43
2018-01-21T05:32:12.619Z,17.92
2018-01-21T05:34:39.340Z,20.50
2018-01-21T05:37:06.097Z,18.10
2018-01-21T05:39:32.834Z,17.90
2018-01-21T05:41:59.575Z,17.75
2018-01-21T05:44:26.362Z,16.77
2018-01-21T05:46:53.078Z,16.90
2018-01-21T05:49:19.807Z,14.68
2018-01-21T05:51:46.600Z,17.52
2018-01-21T05:54:13.349Z,18.83
2018-01-21T05:56:40.099Z,14.45
2018-01-21T05:59:06.840Z,16.50
2018-01-21T06:01:33.656Z,15.02
2018-01-21T06:04:00.395Z,16.20
2018-01-21T06:06:27.135Z,17.35
2018-01-21T06:08:53.867Z,17.55
2018-01-21T06:11:20.582Z,16.33
2018-01-21T06:13:47.316Z,19.20
2018-01-21T06:16:14.046Z,17.45
2018-01-21T06:18:40.769Z,19.05
2018-01-21T06:21:07.527Z,21.30
2018-01-21T06:23:34.251Z,25.52
2018-01-21T06:26:01.015Z,18.58
2018-01-21T06:28:27.766Z,17.80
2018-01-21T06:30:54.492Z,23.17
2018-01-21T06:33:21.222Z,19.27
2018-01-21T06:35:47.944Z,19.30
2018-01-21T06:38:14.664Z,17.85
2018-01-21T06:40:41.380Z,17.05
2018-01-21T06:43:08.112Z,15.23
2018-01-21T06:45:35.005Z,17.00
2018-01-21T06:48:01.745Z,16.60
2018-01-21T06:50:28.480Z,21.55
2018-01-21T06:52:55.213Z,18.75
2018-01-21T06:55:21.959Z,17.87
2018-01-21T06:57:48.731Z,18.50
2018-01-21T07:00:15.459Z,19.25
2018-01-21T07:02:42.180Z,20.85
2018-01-21T07:05:08.925Z,21.70
2018-01-21T07:07:35.693Z,24.63
2018-01-21T07:10:02.413Z,18.80
2018-01-21T07:12:29.160Z,17.33
2018-01-21T07:14:55.905Z,19.48
2018-01-21T07:17:22.626Z,21.60
2018-01-21T07:19:49.395Z,22.75
2018-01-21T07:22:16.140Z,18.10
2018-01-21T07:24:42.871Z,21.65
2018-01-21T07:27:09.626Z,22.15
2018-01-21T07:29:36.368Z,24.00
2018-01-21T07:32:03.102Z,23.50
2018-01-21T07:34:29.854Z,26.30
2018-01-21T07:36:56.580Z,17.27
2018-01-21T07:39:23.297Z,20.42
2018-01-21T07:41:50.026Z,136.60
2018-01-21T07:44:16.761Z,29.35
2018-01-21T07:46:43.477Z,25.98
2018-01-21T07:49:10.198Z,34.40
2018-01-21T07:51:36.920Z,30.90
2018-01-21T07:54:03.670Z,35.85
2018-01-21T07:56:30.407Z,27.03
2018-01-21T07:58:57.138Z,29.40
2018-01-21T08:01:23.878Z,24.50
2018-01-21T08:03:50.627Z,25.87
2018-01-21T08:06:17.361Z,26.87
2018-01-21T08:08:44.124Z,26.00
2018-01-21T08:11:10.881Z,24.33
2018-01-21T08:13:37.591Z,32.00
2018-01-21T08:16:04.323Z,28.53
2018-01-21T08:18:31.077Z,27.67
2018-01-21T08:20:57.783Z,33.10
2018-01-21T08:23:24.488Z,34.33
2018-01-21T08:25:51.263Z,31.10
2018-01-21T08:28:17.980Z,26.70
2018-01-21T08:30:44.692Z,25.40
2018-01-21T08:33:11.448Z,29.17
2018-01-21T08:35:43.838Z,26.50
2018-01-21T08:38:16.418Z,31.07
2018-01-21T08:40:48.989Z,26.30
2018-01-21T08:43:15.718Z,25.43
2018-01-21T08:45:42.577Z,27.10
2018-01-21T08:48:09.295Z,30.67
2018-01-21T08:50:36.013Z,30.17
2018-01-21T08:53:02.739Z,28.33
2018-01-21T08:55:29.456Z,24.13
2018-01-21T08:57:56.176Z,27.87
2018-01-21T09:00:22.928Z,31.97
2018-01-21T09:02:49.685Z,27.83
2018-01-21T09:05:16.412Z,25.40
2018-01-21T09:07:43.151Z,23.10
2018-01-21T09:10:09.865Z,23.73
2018-01-21T09:12:36.578Z,30.30
2018-01-21T09:15:03.341Z,25.63
2018-01-21T09:17:30.059Z,28.00
2018-01-21T09:19:56.779Z,25.47
2018-01-21T09:22:23.511Z,27.50
2018-01-21T09:24:50.244Z,27.07
2018-01-21T09:27:16.958Z,25.03
2018-01-21T09:29:43.698Z,36.83
2018-01-21T09:32:10.418Z,25.87
2018-01-21T09:34:37.135Z,27.63
2018-01-21T09:37:03.881Z,24.93
2018-01-21T09:39:30.584Z,25.40
2018-01-21T09:41:57.298Z,25.80
2018-01-21T09:44:24.013Z,24.47
2018-01-21T09:46:50.741Z,28.33
2018-01-21T09:49:17.449Z,29.20
2018-01-21T09:51:44.219Z,25.53
2018-01-21T09:54:10.958Z,24.00
2018-01-21T09:56:37.667Z,23.20
2018-01-21T09:59:04.412Z,28.47
2018-01-21T10:01:31.137Z,28.80
2018-01-21T10:03:57.861Z,28.10
2018-01-21T10:06:28.528Z,32.83
2018-01-21T10:08:55.238Z,22.63
2018-01-21T10:11:21.961Z,31.27
2018-01-21T10:13:48.686Z,25.17
2018-01-21T10:16:15.424Z,33.27
2018-01-21T10:18:42.141Z,21.87
2018-01-21T10:21:08.887Z,23.90
2018-01-21T10:23:35.610Z,29.87
2018-01-21T10:26:02.325Z,26.27
2018-01-21T10:28:29.064Z,28.77
2018-01-21T10:30:55.794Z,33.30
2018-01-21T10:33:22.513Z,24.67
2018-01-21T10:35:49.260Z,24.37
2018-01-21T10:38:15.990Z,27.17
2018-01-21T10:40:42.721Z,23.47
2018-01-21T10:43:09.441Z,26.30
2018-01-21T10:45:36.166Z,29.23
2018-01-21T10:48:02.885Z,25.57
2018-01-21T10:50:29.639Z,21.90
2018-01-21T10:52:56.366Z,21.20
2018-01-21T10:55:23.093Z,22.07
2018-01-21T10:57:49.833Z,20.93
2018-01-21T11:00:16.555Z,17.03
2018-01-21T11:02:43.281Z,18.00
2018-01-21T11:05:10.025Z,22.60
2018-01-21T11:07:36.737Z,18.77
2018-01-21T11:10:03.456Z,17.80
2018-01-21T11:12:30.204Z,21.17
2018-01-21T11:14:56.951Z,21.70
2018-01-21T11:17:23.666Z,18.60
2018-01-21T11:19:50.401Z,18.80
2018-01-21T11:22:17.133Z,20.07
2018-01-21T11:24:43.873Z,18.83
2018-01-21T11:27:10.596Z,18.63
2018-01-21T11:29:37.324Z,20.80
2018-01-21T11:32:04.066Z,27.10
2018-01-21T11:34:30.809Z,20.37
2018-01-21T11:36:57.517Z,23.27
2018-01-21T11:39:24.242Z,23.20
2018-01-21T11:41:51.014Z,21.90
2018-01-21T11:44:17.738Z,25.07
2018-01-21T11:46:44.465Z,20.00
2018-01-21T11:49:11.202Z,19.30
2018-01-21T11:51:37.940Z,20.37
2018-01-21T11:54:04.688Z,20.23
2018-01-21T11:56:31.430Z,19.97
2018-01-21T11:58:58.167Z,18.30
2018-01-21T12:01:24.896Z,6.03
2018-01-21T12:03:51.614Z,8.93
2018-01-21T12:06:18.330Z,10.00
2018-01-21T12:08:45.035Z,8.67
2018-01-21T12:11:11.790Z,15.10
2018-01-21T12:13:38.502Z,9.33
2018-01-21T12:16:05.217Z,10.53
2018-01-21T12:18:31.934Z,9.97
2018-01-21T12:20:58.681Z,10.20
2018-01-21T12:23:25.405Z,9.80
2018-01-21T12:25:52.118Z,9.13
2018-01-21T12:28:18.865Z,17.13
2018-01-21T12:30:45.606Z,12.40
2018-01-21T12:33:12.458Z,12.73
2018-01-21T12:35:39.173Z,9.60
2018-01-21T12:38:05.899Z,12.73
2018-01-21T12:40:32.652Z,19.43
2018-01-21T12:42:59.378Z,21.13
2018-01-21T12:45:26.092Z,20.00
2018-01-21T12:47:52.833Z,18.67
2018-01-21T12:50:19.539Z,12.77
2018-01-21T12:52:46.298Z,13.03
2018-01-21T12:55:13.082Z,13.77
2018-01-21T12:57:39.808Z,10.60
2018-01-21T13:00:06.530Z,12.40
2018-01-21T13:02:33.264Z,11.70
2018-01-21T13:04:59.986Z,12.07
2018-01-21T13:07:26.717Z,13.10
2018-01-21T13:09:53.432Z,12.70
2018-01-21T13:12:20.175Z,19.30
2018-01-21T13:14:46.889Z,1.93
2018-01-21T13:17:13.628Z,2.43
2018-01-21T13:19:40.336Z,0.87
2018-01-21T13:22:07.086Z,1.00
2018-01-21T13:24:33.830Z,4.27
2018-01-21T13:27:00.816Z,0.83
2018-01-21T13:29:27.524Z,1.30
2018-01-21T13:31:54.258Z,0.90
2018-01-21T13:34:21.015Z,2.70
2018-01-21T13:36:47.730Z,0.87
2018-01-21T13:39:14.442Z,0.73
2018-01-21T13:41:41.160Z,1.17
2018-01-21T13:44:07.872Z,1.20
2018-01-21T13:46:34.600Z,2.73
2018-01-21T13:49:01.343Z,1.17
2018-01-21T13:51:28.083Z,0.80
2018-01-21T13:53:54.819Z,2.40
2018-01-21T13:56:21.541Z,0.80
2018-01-21T13:58:48.277Z,1.53
2018-01-21T14:01:15.031Z,2.00
2018-01-21T14:03:41.754Z,4.97
2018-01-21T14:06:08.479Z,1.80
2018-01-21T14:08:35.206Z,7.50
2018-01-21T14:11:01.916Z,2.70
2018-01-21T14:13:28.625Z,2.00
2018-01-21T14:15:55.353Z,2.83
2018-01-21T14:18:22.069Z,5.53
2018-01-21T14:20:48.780Z,5.10
2018-01-21T14:23:15.501Z,1.37
2018-01-21T14:25:42.235Z,1.90
2018-01-21T14:28:08.947Z,1.40
2018-01-21T14:30:35.672Z,2.90
2018-01-21T14:33:02.417Z,1.00
2018-01-21T14:35:29.121Z,3.57
2018-01-21T14:37:55.848Z,5.20
2018-01-21T14:40:22.575Z,4.40
2018-01-21T14:42:49.307Z,2.20
2018-01-21T14:45:16.045Z,1.30
2018-01-21T14:47:42.782Z,5.03
2018-01-21T14:50:09.521Z,2.30
2018-01-21T14:52:36.268Z,1.30
2018-01-21T14:55:03.057Z,0.87
2018-01-21T14:57:29.815Z,2.97
2018-01-21T14:59:56.577Z,0.63
2018-01-21T15:02:23.307Z,0.83
2018-01-21T15:04:50.019Z,2.30
2018-01-21T15:07:16.764Z,1.13
2018-01-21T15:09:43.470Z,1.17
2018-01-21T15:12:10.183Z,0.70
2018-01-21T15:14:37.093Z,0.80
2018-01-21T15:17:03.803Z,0.60
2018-01-21T15:19:30.518Z,1.30
2018-01-21T15:21:57.249Z,1.23
2018-01-21T15:24:23.949Z,1.03
2018-01-21T15:26:50.752Z,2.37
2018-01-21T15:29:17.508Z,0.80
2018-01-21T15:31:44.240Z,1.10
2018-01-21T15:34:10.984Z,1.33
2018-01-21T15:36:37.688Z,1.00
2018-01-21T15:39:04.475Z,1.00
2018-01-21T15:41:31.213Z,1.13
2018-01-21T15:43:57.963Z,0.73
2018-01-21T15:46:24.691Z,1.43
2018-01-21T15:48:51.482Z,0.80
2018-01-21T15:51:18.210Z,1.90
2018-01-21T15:53:44.933Z,0.70
2018-01-21T15:56:11.656Z,1.23
2018-01-21T15:58:38.373Z,1.90
2018-01-21T16:01:05.114Z,0.90
2018-01-21T16:03:31.825Z,0.80
2018-01-21T16:05:58.599Z,0.70
2018-01-21T16:08:25.328Z,1.00
2018-01-21T16:10:52.072Z,2.00
2018-01-21T16:13:18.815Z,1.80
2018-01-21T16:15:45.557Z,3.03
2018-01-21T16:18:12.290Z,1.23
2018-01-21T16:20:39.041Z,0.80
2018-01-21T16:23:05.779Z,1.63
2018-01-21T16:25:32.519Z,1.33
2018-01-21T16:27:59.270Z,1.10
2018-01-21T16:30:26.015Z,0.90
2018-01-21T16:32:52.744Z,0.90
2018-01-21T16:35:19.500Z,0.93
2018-01-21T16:37:52.146Z,2.70
2018-01-21T16:40:18.892Z,1.10
2018-01-21T16:42:45.605Z,1.00
2018-01-21T16:45:12.324Z,1.57
2018-01-21T16:47:39.053Z,2.27
2018-01-21T16:50:05.766Z,1.70
2018-01-21T16:52:32.473Z,1.17
2018-01-21T16:54:59.206Z,2.40
2018-01-21T16:57:25.932Z,2.23
2018-01-21T16:59:52.658Z,1.23
2018-01-21T17:02:19.451Z,0.83
2018-01-21T17:04:46.165Z,1.10
2018-01-21T17:07:12.866Z,1.60
2018-01-21T17:09:39.594Z,1.23
2018-01-21T17:12:06.340Z,1.77
2018-01-21T17:14:33.113Z,1.20
2018-01-21T17:16:59.891Z,1.40
2018-01-21T17:19:27.382Z,0.90
2018-01-21T17:21:54.107Z,1.40
2018-01-21T17:24:20.924Z,4.13
2018-01-21T17:26:47.646Z,12.57
2018-01-21T17:29:14.403Z,2.17
2018-01-21T17:31:41.279Z,2.27
2018-01-21T17:34:08.044Z,1.63
2018-01-21T17:36:34.797Z,1.73
2018-01-21T17:39:01.542Z,4.20
2018-01-21T17:41:28.293Z,5.97
2018-01-21T17:43:55.017Z,6.33
2018-01-21T17:46:21.737Z,2.17
2018-01-21T17:48:48.478Z,4.93
2018-01-21T17:51:15.196Z,2.20
2018-01-21T17:53:41.923Z,18.27
2018-01-21T17:56:08.686Z,2.20
2018-01-21T17:58:35.405Z,28.50
2018-01-21T18:01:02.193Z,3.33
2018-01-21T18:03:28.938Z,6.40
2018-01-21T18:05:55.662Z,19.40
2018-01-21T18:08:22.467Z,2.40
2018-01-21T18:10:49.215Z,1.63
2018-01-21T18:13:16.074Z,1.10
2018-01-21T18:15:42.814Z,2.23
2018-01-21T18:18:09.656Z,37.27
2018-01-21T18:20:36.432Z,6.37
2018-01-21T18:23:03.371Z,6.33
2018-01-21T18:25:30.081Z,8.00
2018-01-21T18:27:56.816Z,3.93
2018-01-21T18:30:23.570Z,2.50
2018-01-21T18:32:50.321Z,110.13
2018-01-21T18:35:17.064Z,44.30
2018-01-21T18:37:43.849Z,21.10
2018-01-21T18:40:10.581Z,10.40
2018-01-21T18:42:37.348Z,8.07
2018-01-21T18:45:04.103Z,4.57
2018-01-21T18:47:30.855Z,3.00
2018-01-21T18:49:57.592Z,4.10
2018-01-21T18:52:24.358Z,3.73
2018-01-21T18:54:51.076Z,6.00
2018-01-21T18:57:17.951Z,6.50
2018-01-21T18:59:44.686Z,6.60
2018-01-21T19:02:11.401Z,6.20
2018-01-21T19:04:38.226Z,8.10
2018-01-21T19:07:04.967Z,5.00
2018-01-21T19:09:31.698Z,3.93
2018-01-21T19:11:58.512Z,2.90
2018-01-21T19:14:25.341Z,2.20
2018-01-21T19:16:52.083Z,0.90
2018-01-21T19:19:18.824Z,1.87
2018-01-21T19:21:45.555Z,4.10
2018-01-21T19:24:12.279Z,1.03
2018-01-21T19:26:38.984Z,1.67
2018-01-21T19:29:05.898Z,1.23
2018-01-21T19:31:32.636Z,1.27
2018-01-21T19:33:59.431Z,1.23
2018-01-21T19:36:26.419Z,1.13
2018-01-21T19:38:58.874Z,1.00
2018-01-21T19:41:42.398Z,1.00
2018-01-21T19:44:15.453Z,1.70
2018-01-21T19:46:42.325Z,2.60
2018-01-21T19:49:09.068Z,2.17
2018-01-21T19:51:35.809Z,1.30
2018-01-21T19:54:02.554Z,1.20
2018-01-21T19:56:29.295Z,0.90
2018-01-21T19:58:56.056Z,2.60
2018-01-21T20:01:22.814Z,1.30
2018-01-21T20:03:49.568Z,1.20
2018-01-21T20:06:16.344Z,1.63
2018-01-21T20:08:43.137Z,1.20
2018-01-21T20:11:09.899Z,1.30
2018-01-21T20:13:37.003Z,1.20
2018-01-21T20:16:03.863Z,2.03
2018-01-21T20:18:30.692Z,1.70
2018-01-21T20:20:57.433Z,1.00
2018-01-21T20:23:24.222Z,1.10
2018-01-21T20:25:50.965Z,5.00
2018-01-21T20:28:17.720Z,1.50
2018-01-21T20:30:44.462Z,1.63
2018-01-21T20:33:11.198Z,2.20
2018-01-21T20:35:37.946Z,3.10
2018-01-21T20:38:04.696Z,1.97
2018-01-21T20:40:31.444Z,3.00
2018-01-21T20:42:58.186Z,1.93
2018-01-21T20:45:24.963Z,3.43
2018-01-21T20:47:51.764Z,2.90
2018-01-21T20:50:18.533Z,1.30
2018-01-21T20:52:46.178Z,1.60
2018-01-21T20:55:12.955Z,3.77
2018-01-21T20:57:39.701Z,1.33
2018-01-21T21:00:06.473Z,1.45
2018-01-21T21:02:33.233Z,1.87
2018-01-21T21:05:00.500Z,1.70
2018-01-21T21:07:27.265Z,4.13
2018-01-21T21:09:54.015Z,2.60
2018-01-21T21:12:20.743Z,1.97
2018-01-21T21:14:47.489Z,2.27
2018-01-21T21:17:14.220Z,2.07
2018-01-21T21:19:40.935Z,1.60
2018-01-21T21:22:07.684Z,2.00
2018-01-21T21:24:34.421Z,1.93
2018-01-21T21:27:01.160Z,2.57
2018-01-21T21:29:27.957Z,1.90
2018-01-21T21:31:54.759Z,2.50
2018-01-21T21:34:21.507Z,1.97
2018-01-21T21:36:48.281Z,2.23
2018-01-21T21:39:15.015Z,2.60
2018-01-21T21:41:41.782Z,1.90
2018-01-21T21:44:08.614Z,1.60
2018-01-21T21:46:35.330Z,1.93
2018-01-21T21:49:02.053Z,2.80
2018-01-21T21:51:28.958Z,2.00
2018-01-21T21:53:55.753Z,2.20
2018-01-21T21:56:22.476Z,2.67
2018-01-21T21:58:49.200Z,2.47
2018-01-21T22:01:15.912Z,2.20
2018-01-21T22:03:42.635Z,1.90
2018-01-21T22:06:09.376Z,1.80
2018-01-21T22:08:36.109Z,2.90
2018-01-21T22:11:02.849Z,2.93
2018-01-21T22:13:29.573Z,2.53
2018-01-21T22:15:56.295Z,3.90
2018-01-21T22:18:23.027Z,1.90
2018-01-21T22:20:49.764Z,2.30
2018-01-21T22:23:16.502Z,2.50
2018-01-21T22:25:43.210Z,4.00
2018-01-21T22:28:09.933Z,3.27
2018-01-21T22:30:36.679Z,3.50
2018-01-21T22:33:03.410Z,2.10
2018-01-21T22:35:30.174Z,3.17
2018-01-21T22:37:56.942Z,4.37
2018-01-21T22:40:23.682Z,2.20
2018-01-21T22:42:50.531Z,2.70
2018-01-21T22:45:17.326Z,2.80
2018-01-21T22:47:44.067Z,2.30
2018-01-21T22:50:10.807Z,2.13
2018-01-21T22:52:37.524Z,2.60
2018-01-21T22:55:04.262Z,2.87
2018-01-21T22:57:31.007Z,3.10
2018-01-21T22:59:57.821Z,3.50
2018-01-21T23:02:24.560Z,6.63
2018-01-21T23:04:51.296Z,3.03
2018-01-21T23:07:18.022Z,3.20
2018-01-21T23:09:44.742Z,2.47
2018-01-21T23:12:11.481Z,2.00
2018-01-21T23:14:38.198Z,2.40
2018-01-21T23:17:04.929Z,2.57
2018-01-21T23:19:31.666Z,2.60
2018-01-21T23:21:58.384Z,2.50
2018-01-21T23:24:26.016Z,2.33
2018-01-21T23:26:52.768Z,1.90
2018-01-21T23:29:19.502Z,1.90
2018-01-21T23:31:46.234Z,4.10
2018-01-21T23:34:12.987Z,2.30
2018-01-21T23:36:39.714Z,2.70
2018-01-21T23:39:06.459Z,3.03
2018-01-21T23:41:33.208Z,2.20
2018-01-21T23:43:59.943Z,2.10
2018-01-21T23:46:26.669Z,1.97
2018-01-21T23:48:53.429Z,3.23
2018-01-21T23:51:20.142Z,3.10
2018-01-21T23:53:46.871Z,2.87
2018-01-21T23:56:13.602Z,3.10
2018-01-21T23:58:40.317Z,2.43
